Time;durP1;ratioP1;P1;durP2;ratioP2;P2;SDS_P1;SDS_P2;PMS_P1;PMS_P2;Temp;Humidity;BMP_temperature;BMP_pressure;BME280_temperature;BME280_humidity;BME280_pressure;Samples;Min_cycle;Max_cycle;Signal;HPM_P1;HPM_P2
2024/04/18 00:06:25;;;;;;;31.50;24.70;;;;;;;-2.34;98.86;98669.05;449164;1234;140366;-62
2024/04/18 00:16:29;;;;;;;26.70;19.60;;;;;;;-2.39;99.59;98670.89;450622;1236;139735;-61
2024/04/18 00:26:33;;;;;;;17.80;14.50;;;;;;;-2.35;100.00;98672.85;449867;1233;139412;-65
2024/04/18 00:36:36;;;;;;;16.30;10.70;;;;;;;-2.20;100.00;98676.06;449779;1233;139403;-65
2024/04/18 00:46:40;;;;;;;9.10;7.50;;;;;;;-1.87;100.00;98675.01;449293;1236;140740;-61
2024/04/18 00:56:45;;;;;;;11.20;6.70;;;;;;;-1.53;100.00;98678.34;448856;1237;139152;-61
2024/04/18 01:06:48;;;;;;;7.50;5.30;;;;;;;-1.27;100.00;98681.70;449019;1236;139677;-65
2024/04/18 01:16:51;;;;;;;8.60;6.40;;;;;;;-1.12;100.00;98687.77;449081;1235;139601;-65
2024/04/18 01:26:55;;;;;;;10.40;6.70;;;;;;;-1.17;100.00;98692.22;449017;1234;331384;-57
2024/04/18 01:36:58;;;;;;;23.60;18.40;;;;;;;-1.42;100.00;98705.14;449575;1236;139822;-55
2024/04/18 01:47:01;;;;;;;35.60;27.40;;;;;;;-1.63;100.00;98715.87;449000;1234;139814;-61
2024/04/18 01:57:06;;;;;;;37.20;28.20;;;;;;;-1.82;100.00;98719.30;449122;1236;139252;-61
2024/04/18 02:07:09;;;;;;;51.20;36.10;;;;;;;-2.02;100.00;98726.19;449862;1236;139831;-60
2024/04/18 02:17:12;;;;;;;45.00;33.00;;;;;;;-2.22;100.00;98727.73;449681;1234;140681;-60
2024/04/18 02:27:16;;;;;;;36.40;27.80;;;;;;;-2.39;100.00;98729.01;449430;1236;139344;-60
2024/04/18 02:37:20;;;;;;;38.60;29.30;;;;;;;-2.42;100.00;98736.96;449610;1237;142131;-63
2024/04/18 02:47:23;;;;;;;53.70;42.40;;;;;;;-2.25;100.00;98746.66;448879;1233;139391;-63
2024/04/18 02:57:28;;;;;;;50.80;39.50;;;;;;;-1.98;100.00;98750.95;449099;1237;140035;-55
2024/04/18 03:07:32;;;;;;;41.20;31.90;;;;;;;-1.72;100.00;98754.21;448838;1237;139900;-60
2024/04/18 03:17:35;;;;;;;42.40;33.60;;;;;;;-1.53;100.00;98751.46;448663;1237;139362;-60
2024/04/18 03:27:39;;;;;;;43.00;28.50;;;;;;;-1.43;100.00;98747.21;450076;1234;139475;-61
2024/04/18 03:37:42;;;;;;;34.50;25.00;;;;;;;-1.31;100.00;98746.72;449708;1234;140097;-62
2024/04/18 03:47:50;;;;;;;32.00;24.20;;;;;;;-1.18;100.00;98758.38;451268;1236;141003;-60
2024/04/18 03:57:54;;;;;;;26.30;22.30;;;;;;;-1.02;100.00;98760.84;450295;1236;139933;-56
2024/04/18 04:08:00;;;;;;;30.10;24.80;;;;;;;-0.83;100.00;98758.02;449172;1236;139784;-55
2024/04/18 04:18:04;;;;;;;36.30;24.90;;;;;;;-0.60;100.00;98772.27;448800;1236;140045;-60
2024/04/18 04:28:07;;;;;;;31.10;23.40;;;;;;;-0.24;100.00;98785.73;448629;1236;139627;-61
2024/04/18 04:38:11;;;;;;;32.10;24.40;;;;;;;0.15;100.00;98792.89;448451;1238;139408;-61
2024/04/18 04:48:14;;;;;;;29.70;25.70;;;;;;;0.42;100.00;98797.85;448195;1236;139730;-61
2024/04/18 04:58:20;;;;;;;27.50;21.20;;;;;;;0.68;100.00;98804.15;449251;1237;139894;-60
2024/04/18 05:08:23;;;;;;;23.30;19.10;;;;;;;1.14;100.00;98805.40;449099;1236;139121;-60
2024/04/18 05:18:27;;;;;;;17.60;11.10;;;;;;;1.66;100.00;98808.59;449394;1237;139691;-65
2024/04/18 05:28:40;;;;;;;10.10;5.60;;;;;;;1.80;100.00;98814.06;449336;1236;139778;-62
2024/04/18 05:38:44;;;;;;;4.30;3.60;;;;;;;2.09;100.00;98818.23;448723;1237;139030;-62
2024/04/18 05:48:47;;;;;;;6.40;4.40;;;;;;;2.47;100.00;98817.69;449443;1237;140289;-61
2024/04/18 05:58:51;;;;;;;9.70;6.50;;;;;;;3.97;100.00;98817.54;449180;1237;138773;-61
2024/04/18 06:08:55;;;;;;;6.40;5.70;;;;;;;8.80;100.00;98819.52;449083;1237;138843;-60
2024/04/18 06:18:58;;;;;;;5.30;4.70;;;;;;;9.08;96.69;98828.09;449867;1237;139222;-60
2024/04/18 06:29:02;;;;;;;7.50;4.90;;;;;;;8.21;94.21;98839.88;449012;1238;139424;-60
2024/04/18 06:39:06;;;;;;;6.40;5.50;;;;;;;8.02;93.04;98841.13;450166;1238;138878;-60
2024/04/18 06:49:10;;;;;;;9.80;8.50;;;;;;;7.63;91.01;98857.17;462839;1235;138556;-61
2024/04/18 06:59:13;;;;;;;9.20;7.90;;;;;;;6.72;90.52;98857.85;462866;1234;138857;-68
2024/04/18 07:09:16;;;;;;;10.50;6.60;;;;;;;7.20;93.89;98866.62;462967;1233;138973;-59
2024/04/18 07:19:19;;;;;;;6.30;5.50;;;;;;;16.19;97.51;98861.15;462865;1236;139333;-62
2024/04/18 07:29:23;;;;;;;5.90;5.10;;;;;;;24.21;85.00;98847.80;462996;1235;139790;-64
2024/04/18 07:39:29;;;;;;;4.00;3.60;;;;;;;25.92;66.75;98856.29;463224;1237;138698;-63
2024/04/18 07:49:32;;;;;;;5.40;4.90;;;;;;;22.08;53.75;98877.20;462904;1234;138232;-64
2024/04/18 07:59:35;;;;;;;4.40;4.00;;;;;;;22.87;51.34;98882.87;462867;1234;139199;-58
2024/04/18 08:09:40;;;;;;;4.50;3.40;;;;;;;22.69;48.26;98884.23;463193;1233;138801;-57
2024/04/18 08:19:48;;;;;;;3.60;3.30;;;;;;;25.48;47.29;98882.35;463079;1235;138489;-59
2024/04/18 08:29:52;;;;;;;7.00;4.70;;;;;;;23.18;40.33;98878.59;455376;1237;139081;-57
2024/04/18 08:39:55;;;;;;;5.90;4.20;;;;;;;18.46;40.61;98883.17;462963;1235;138350;-59
2024/04/18 08:49:58;;;;;;;4.10;3.80;;;;;;;15.11;42.39;98883.40;462944;1234;138726;-70
2024/04/18 09:00:03;;;;;;;5.60;4.40;;;;;;;12.86;44.44;98890.48;462877;1233;139448;-57
2024/04/18 09:10:09;;;;;;;3.10;2.80;;;;;;;12.05;46.17;98891.73;462904;1236;138847;-57
2024/04/18 09:20:12;;;;;;;1.80;1.70;;;;;;;12.36;46.46;98892.17;462982;1235;138993;-62
2024/04/18 09:30:16;;;;;;;1.50;1.30;;;;;;;12.24;45.72;98896.83;462877;1233;139188;-65
2024/04/18 09:40:23;;;;;;;2.20;1.60;;;;;;;11.67;45.32;98884.89;462827;1235;138831;-71
2024/04/18 09:50:27;;;;;;;1.90;1.70;;;;;;;10.87;46.18;98883.04;462906;1235;139286;-60
2024/04/18 10:00:31;;;;;;;2.40;2.20;;;;;;;11.02;47.38;98881.02;462852;1233;138742;-62
2024/04/18 10:10:36;;;;;;;5.70;3.10;;;;;;;11.12;47.63;98879.53;462861;1233;139281;-60
2024/04/18 10:20:43;;;;;;;3.20;2.70;;;;;;;11.44;47.84;98875.11;462940;1235;138967;-61
2024/04/18 10:30:47;;;;;;;2.10;1.90;;;;;;;11.14;47.03;98882.14;462731;1233;138785;-61
2024/04/18 10:41:03;;;;;;;2.20;2.00;;;;;;;10.57;47.70;98879.67;462782;1235;138374;-60
2024/04/18 10:51:07;;;;;;;1.70;1.50;;;;;;;10.39;48.01;98869.41;462935;1233;138481;-65
2024/04/18 11:01:17;;;;;;;2.00;1.70;;;;;;;10.86;48.06;98869.92;462802;1233;138532;-59
2024/04/18 11:11:26;;;;;;;10.70;2.90;;;;;;;11.23;46.92;98872.55;462823;1233;138498;-55
2024/04/18 11:21:30;;;;;;;2.40;1.50;;;;;;;10.98;47.01;98888.80;462966;1233;138535;-62
2024/04/18 11:31:33;;;;;;;2.70;1.60;;;;;;;10.33;46.94;98883.88;462300;1233;138640;-64
2024/04/18 11:41:37;;;;;;;2.80;1.80;;;;;;;10.16;47.57;98887.75;462956;1233;139992;-61
2024/04/18 11:51:40;;;;;;;1.80;1.70;;;;;;;9.57;48.98;98906.95;463041;1233;138831;-60
2024/04/18 12:01:44;;;;;;;2.30;1.70;;;;;;;8.93;50.45;98902.27;462909;1233;138778;-53
2024/04/18 12:11:47;;;;;;;2.10;1.80;;;;;;;9.13;50.95;98896.94;462856;1233;139363;-55
2024/04/18 12:21:50;;;;;;;4.10;1.20;;;;;;;9.37;50.46;98902.95;462956;1233;138280;-54
2024/04/18 12:31:54;;;;;;;2.80;1.60;;;;;;;9.68;49.65;98894.63;462863;1233;138045;-53
2024/04/18 12:41:58;;;;;;;2.30;2.00;;;;;;;9.54;49.59;98903.52;462895;1233;138083;-58
2024/04/18 12:52:01;;;;;;;3.80;2.80;;;;;;;9.64;50.80;98903.68;462946;1233;139366;-62
2024/04/18 13:02:05;;;;;;;3.50;1.90;;;;;;;10.05;50.92;98902.36;462975;1233;137988;-62
2024/04/18 13:12:08;;;;;;;2.00;1.70;;;;;;;9.81;51.26;98915.55;462923;1233;138781;-59
2024/04/18 13:22:12;;;;;;;4.50;3.10;;;;;;;9.30;53.60;98931.71;462938;1233;138646;-63
2024/04/18 13:32:17;;;;;;;4.30;3.20;;;;;;;9.24;55.18;98931.06;459000;1233;5110179;-60
2024/04/18 13:42:20;;;;;;;3.50;2.10;;;;;;;9.25;55.71;98934.48;462817;1233;138887;-61
2024/04/18 13:52:23;;;;;;;2.60;2.10;;;;;;;9.39;55.91;98931.95;462849;1233;138779;-57
2024/04/18 14:02:26;;;;;;;2.60;2.40;;;;;;;9.64;55.27;98919.58;462989;1233;138223;-59
2024/04/18 14:12:30;;;;;;;2.30;1.60;;;;;;;9.97;53.81;98908.65;462711;1233;138636;-60
2024/04/18 14:22:33;;;;;;;1.70;1.40;;;;;;;10.07;52.54;98902.18;463009;1233;138557;-62
2024/04/18 14:32:36;;;;;;;3.20;2.40;;;;;;;9.72;51.63;98916.05;462958;1233;138919;-58
2024/04/18 14:42:41;;;;;;;3.10;2.50;;;;;;;9.15;53.81;98936.27;462798;1233;138990;-61
2024/04/18 14:52:48;;;;;;;4.00;3.50;;;;;;;8.87;55.38;98937.10;462698;1233;138171;-58
2024/04/18 15:02:53;;;;;;;6.20;2.60;;;;;;;8.57;56.14;98934.16;462967;1234;138156;-60
2024/04/18 15:12:57;;;;;;;3.10;2.60;;;;;;;8.47;56.54;98934.96;462860;1233;138389;-63
2024/04/18 15:23:00;;;;;;;5.30;2.90;;;;;;;8.35;56.76;98936.04;462852;1233;138123;-59
2024/04/18 15:33:04;;;;;;;4.30;3.90;;;;;;;8.08;57.79;98934.13;462852;1232;138270;-58
2024/04/18 15:43:07;;;;;;;3.40;2.90;;;;;;;7.93;58.47;98928.80;462842;1233;138915;-60
2024/04/18 15:53:11;;;;;;;2.50;2.10;;;;;;;7.72;58.07;98929.25;457782;1236;138998;-58
2024/04/18 16:03:14;;;;;;;2.90;1.80;;;;;;;7.66;57.39;98935.40;458073;1233;138600;-58
2024/04/18 16:13:18;;;;;;;15.80;3.40;;;;;;;7.75;56.30;98939.55;449682;1236;138457;-59
2024/04/18 16:23:21;;;;;;;2.90;1.80;;;;;;;7.80;55.37;98947.56;449320;1235;138503;-59
2024/04/18 16:33:26;;;;;;;1.90;1.80;;;;;;;8.04;55.11;98950.42;448770;1234;138642;-60
2024/04/18 16:43:30;;;;;;;3.30;2.10;;;;;;;7.94;54.54;98963.64;448832;1236;138823;-60
2024/04/18 16:53:36;;;;;;;2.80;2.50;;;;;;;7.48;55.58;98979.48;449095;1236;139371;-59
2024/04/18 17:03:39;;;;;;;3.80;3.40;;;;;;;6.94;57.12;98997.45;463028;1233;138526;-59
2024/04/18 17:13:43;;;;;;;6.20;3.90;;;;;;;6.42;58.92;99009.45;462897;1233;138599;-48
2024/04/18 17:23:46;;;;;;;2.60;2.40;;;;;;;6.06;61.04;99025.13;462957;1234;138531;-51
2024/04/18 17:33:49;;;;;;;2.90;2.40;;;;;;;5.52;62.59;99034.03;455948;1235;139510;-62
2024/04/18 17:43:53;;;;;;;2.10;1.90;;;;;;;5.02;64.03;99040.23;462879;1233;139726;-67
2024/04/18 17:53:56;;;;;;;3.00;2.30;;;;;;;4.56;65.43;99038.78;462945;1233;139378;-65
2024/04/18 18:04:00;;;;;;;5.00;3.10;;;;;;;4.13;66.90;99044.96;455501;1236;139230;-59
2024/04/18 18:14:03;;;;;;;5.50;4.30;;;;;;;3.74;68.14;99050.84;449056;1236;139511;-61
2024/04/18 18:24:07;;;;;;;6.60;4.40;;;;;;;3.50;70.02;99055.70;449255;1234;140257;-66
2024/04/18 18:34:14;;;;;;;4.00;3.30;;;;;;;3.45;71.74;99061.28;462940;1233;139940;-63
2024/04/18 18:44:17;;;;;;;4.20;3.20;;;;;;;3.45;72.18;99063.89;462957;1233;140027;-58
2024/04/18 18:54:21;;;;;;;4.40;3.30;;;;;;;3.44;72.53;99066.36;462690;1234;139340;-62
2024/04/18 19:04:24;;;;;;;4.50;3.60;;;;;;;3.38;72.93;99069.05;462903;1233;139105;-61
2024/04/18 19:14:28;;;;;;;4.50;3.30;;;;;;;3.26;73.45;99070.38;463092;1233;139425;-60
2024/04/18 19:24:31;;;;;;;7.60;4.30;;;;;;;3.19;74.49;99080.52;462950;1233;138682;-58
2024/04/18 19:34:35;;;;;;;6.20;5.10;;;;;;;3.26;75.14;99079.91;460187;1236;139321;-62
2024/04/18 19:44:40;;;;;;;5.20;4.00;;;;;;;3.33;75.47;99079.63;462654;1232;139317;-58
2024/04/18 19:54:44;;;;;;;4.80;3.40;;;;;;;3.36;75.66;99076.21;450087;1236;139719;-60
2024/04/18 20:04:48;;;;;;;4.00;3.60;;;;;;;3.35;75.82;99070.00;451733;1234;139238;-59
2024/04/18 20:14:54;;;;;;;4.20;3.70;;;;;;;3.29;76.06;99070.79;450577;1236;139097;-60
2024/04/18 20:24:57;;;;;;;5.10;3.50;;;;;;;3.19;76.33;99067.91;449797;1234;139591;-59
2024/04/18 20:35:00;;;;;;;6.20;3.60;;;;;;;3.12;77.22;99069.94;449309;1236;140398;-58
2024/04/18 20:45:06;;;;;;;4.80;4.40;;;;;;;3.14;78.02;99066.77;449814;1237;139288;-57
2024/04/18 20:55:09;;;;;;;5.20;4.20;;;;;;;3.16;78.44;99071.17;449319;1237;139839;-58
2024/04/18 21:05:13;;;;;;;5.20;4.70;;;;;;;3.16;78.56;99062.18;449279;1236;139342;-57
2024/04/18 21:15:17;;;;;;;5.10;4.30;;;;;;;3.12;78.89;99060.77;450842;1236;139346;-55
2024/04/18 21:25:23;;;;;;;8.60;5.50;;;;;;;2.97;79.30;99062.77;450692;1233;139895;-57
2024/04/18 21:35:26;;;;;;;6.80;5.50;;;;;;;2.65;79.25;99074.75;449158;1236;139279;-57
2024/04/18 21:45:30;;;;;;;8.20;7.30;;;;;;;2.31;79.39;99078.69;449727;1236;139694;-57
2024/04/18 21:55:33;;;;;;;8.00;6.40;;;;;;;1.95;80.11;99075.48;449539;1236;139006;-57
2024/04/18 22:05:36;;;;;;;8.60;7.50;;;;;;;1.59;80.80;99075.74;449341;1233;139749;-60
2024/04/18 22:15:40;;;;;;;11.60;10.00;;;;;;;1.22;81.46;99070.80;450102;1234;139827;-60
2024/04/18 22:25:45;;;;;;;18.10;13.50;;;;;;;0.89;82.17;99069.46;450083;1236;139472;-60
2024/04/18 22:35:53;;;;;;;13.50;10.70;;;;;;;0.59;82.89;99065.76;449456;1236;140262;-60
2024/04/18 22:45:56;;;;;;;11.40;10.10;;;;;;;0.30;83.46;99062.52;449181;1233;140058;-60
2024/04/18 22:56:00;;;;;;;9.50;8.00;;;;;;;0.04;84.30;99058.46;449340;1238;139856;-59
2024/04/18 23:06:04;;;;;;;13.80;9.50;;;;;;;-0.17;85.17;99053.55;450906;1238;140119;-57
2024/04/18 23:16:08;;;;;;;11.10;7.70;;;;;;;-0.34;85.98;99051.61;451599;1238;140003;-57
2024/04/18 23:26:11;;;;;;;9.00;6.70;;;;;;;-0.49;86.90;99043.77;451615;1234;139586;-58
2024/04/18 23:36:14;;;;;;;9.90;8.40;;;;;;;-0.62;87.63;99033.66;450171;1235;139623;-57
2024/04/18 23:46:18;;;;;;;12.30;8.70;;;;;;;-0.76;88.03;99024.04;448936;1238;140964;-61
2024/04/18 23:56:21;;;;;;;11.20;9.30;;;;;;;-0.91;88.72;99021.85;448986;1240;139778;-60
